createdAt,value
2022-08-17T00:00:34.513Z,100666.97
2022-08-17T00:03:10.322Z,100665.91
2022-08-17T00:05:45.970Z,100676.69
2022-08-17T00:08:15.843Z,100669.09
2022-08-17T00:10:45.298Z,100654.34
2022-08-17T00:13:19.681Z,100646.47
2022-08-17T00:15:47.380Z,100649.03
2022-08-17T00:19:06.324Z,100645.44
2022-08-17T00:21:02.912Z,100651.41
2022-08-17T00:23:30.266Z,100653.47
2022-08-17T00:25:57.022Z,100646.41
2022-08-17T00:28:24.158Z,100651.03
2022-08-17T00:30:53.525Z,100647.78
2022-08-17T00:33:27.710Z,100652.41
2022-08-17T00:35:56.692Z,100655.16
2022-08-17T00:38:25.620Z,100635.22
2022-08-17T00:40:59.170Z,100616.78
2022-08-17T00:43:33.217Z,100626.94
2022-08-17T00:46:09.445Z,100625.56
2022-08-17T00:48:37.600Z,100619.94
2022-08-17T00:51:12.390Z,100608.22
2022-08-17T00:53:44.574Z,100612.16
2022-08-17T00:56:21.054Z,100611.34
2022-08-17T00:58:52.317Z,100613.72
2022-08-17T01:01:21.169Z,100628.19
2022-08-17T01:03:52.110Z,100622.66
2022-08-17T01:06:21.263Z,100626.25
2022-08-17T01:08:52.110Z,100613.16
2022-08-17T01:11:25.388Z,100596.25
2022-08-17T01:13:52.671Z,100586.50
2022-08-17T01:16:30.859Z,100573.00
2022-08-17T01:19:06.588Z,100589.72
2022-08-17T01:21:41.427Z,100589.97
2022-08-17T01:24:09.030Z,100592.81
2022-08-17T01:26:40.408Z,100584.56
2022-08-17T01:29:07.549Z,100585.78
2022-08-17T01:31:38.705Z,100577.41
2022-08-17T01:34:09.630Z,100572.47
2022-08-17T01:36:39.292Z,100557.84
2022-08-17T01:39:11.293Z,100563.56
2022-08-17T01:41:41.072Z,100561.09
2022-08-17T01:44:08.273Z,100560.28
2022-08-17T01:46:37.008Z,100572.59
2022-08-17T01:49:10.467Z,100573.47
2022-08-17T01:51:38.184Z,100573.53
2022-08-17T01:54:10.748Z,100564.88
2022-08-17T01:56:41.929Z,100561.16
2022-08-17T01:59:08.963Z,100554.28
2022-08-17T02:01:37.949Z,100553.75
2022-08-17T02:04:06.060Z,100557.75
2022-08-17T02:06:45.129Z,100558.81
2022-08-17T02:09:21.718Z,100549.41
2022-08-17T02:11:50.866Z,100522.97
2022-08-17T02:14:18.050Z,100510.47
2022-08-17T02:16:44.807Z,100481.50
2022-08-17T02:19:13.978Z,100468.94
2022-08-17T02:21:41.736Z,100458.34
2022-08-17T02:24:16.441Z,100438.66
2022-08-17T02:26:43.752Z,100437.88
2022-08-17T02:29:10.472Z,100431.13
2022-08-17T02:31:37.956Z,100417.25
2022-08-17T02:34:06.469Z,100406.25
2022-08-17T02:36:35.405Z,100394.56
2022-08-17T02:39:08.892Z,100397.13
2022-08-17T02:41:36.718Z,100392.28
2022-08-17T02:44:04.122Z,100385.63
2022-08-17T02:46:32.373Z,100404.84
2022-08-17T02:48:59.549Z,100392.47
2022-08-17T02:51:27.012Z,100380.78
2022-08-17T02:54:40.659Z,100336.16
2022-08-17T02:56:41.035Z,100309.41
2022-08-17T02:59:08.036Z,100268.19
2022-08-17T03:01:35.473Z,100262.69
2022-08-17T03:04:03.462Z,100266.97
2022-08-17T03:06:32.544Z,100257.53
2022-08-17T03:08:59.461Z,100241.41
2022-08-17T03:11:26.546Z,100227.81
2022-08-17T03:13:53.252Z,100222.84
2022-08-17T03:16:20.404Z,100212.03
2022-08-17T03:18:47.274Z,100184.56
2022-08-17T03:21:14.128Z,100172.72
2022-08-17T03:23:43.703Z,100174.09
2022-08-17T03:26:13.483Z,100158.66
2022-08-17T03:28:42.816Z,100155.53
2022-08-17T03:31:10.134Z,100152.81
2022-08-17T03:33:38.052Z,100131.16
2022-08-17T03:36:05.193Z,100127.38
2022-08-17T03:38:39.224Z,100130.81
2022-08-17T03:41:07.049Z,100126.34
2022-08-17T03:43:34.666Z,100133.56
2022-08-17T03:46:34.619Z,100127.88
2022-08-17T03:49:26.261Z,100129.59
2022-08-17T03:52:12.444Z,100131.53
2022-08-17T03:54:57.833Z,100135.47
2022-08-17T03:57:25.791Z,100130.13
2022-08-17T03:59:53.787Z,100136.69
2022-08-17T04:02:28.309Z,100140.59
2022-08-17T04:04:55.367Z,100149.72
2022-08-17T04:07:25.704Z,100155.91
2022-08-17T04:09:52.679Z,100157.97
2022-08-17T04:12:22.873Z,100161.22
2022-08-17T04:14:53.346Z,100159.00
2022-08-17T04:17:24.594Z,100162.94
2022-08-17T04:19:52.036Z,100161.03
2022-08-17T04:22:31.819Z,100161.72
2022-08-17T04:25:17.199Z,100156.75
2022-08-17T04:27:44.065Z,100156.59
2022-08-17T04:30:11.680Z,100162.41
2022-08-17T04:33:05.901Z,100160.00
2022-08-17T04:35:37.121Z,100160.34
2022-08-17T04:38:04.432Z,100154.50
2022-08-17T04:40:49.846Z,100157.09
2022-08-17T04:43:19.847Z,100146.25
2022-08-17T04:46:04.815Z,100138.56
2022-08-17T04:48:37.057Z,100124.47
2022-08-17T04:51:17.259Z,100131.88
2022-08-17T04:53:47.638Z,100134.97
2022-08-17T04:56:21.572Z,100139.41
2022-08-17T04:58:50.931Z,100139.94
2022-08-17T05:01:24.127Z,100155.53
2022-08-17T05:03:53.526Z,100140.97
2022-08-17T05:06:20.808Z,100139.75
2022-08-17T05:08:47.683Z,100132.19
2022-08-17T05:11:14.917Z,100141.25
2022-08-17T05:13:41.929Z,100142.69
2022-08-17T05:16:09.223Z,100135.41
2022-08-17T05:18:37.298Z,100144.53
2022-08-17T05:21:04.472Z,100133.50
2022-08-17T05:23:33.689Z,100144.50
2022-08-17T05:26:10.355Z,100147.53
2022-08-17T05:28:48.023Z,100148.91
2022-08-17T05:31:14.929Z,100159.53
2022-08-17T05:33:46.248Z,100163.44
2022-08-17T05:36:37.920Z,100161.63
2022-08-17T05:39:02.840Z,100168.91
2022-08-17T05:41:29.599Z,100187.03
2022-08-17T05:43:56.757Z,100179.75
2022-08-17T05:46:50.819Z,100188.47
2022-08-17T05:49:22.669Z,100176.75
2022-08-17T05:51:58.397Z,100171.94
2022-08-17T05:54:47.071Z,100178.78
2022-08-17T05:57:25.850Z,100175.72
2022-08-17T06:00:01.601Z,100178.91
2022-08-17T06:02:47.999Z,100187.91
2022-08-17T06:05:53.671Z,100187.94
2022-08-17T06:08:38.347Z,100174.16
2022-08-17T06:11:27.132Z,100188.69
2022-08-17T06:14:13.273Z,100193.28
2022-08-17T06:16:44.999Z,100194.47
2022-08-17T06:19:27.830Z,100193.00
2022-08-17T06:21:55.120Z,100196.63
2022-08-17T06:24:40.679Z,100188.84
2022-08-17T06:27:17.958Z,100194.13
2022-08-17T06:29:58.159Z,100198.56
2022-08-17T06:32:25.641Z,100201.63
2022-08-17T06:34:53.636Z,100218.59
2022-08-17T06:37:39.126Z,100224.03
2022-08-17T06:40:28.259Z,100227.84
2022-08-17T06:43:14.810Z,100230.28
2022-08-17T06:45:50.452Z,100228.63
2022-08-17T06:48:26.855Z,100220.19
2022-08-17T06:51:11.105Z,100208.28
2022-08-17T06:54:07.037Z,100226.47
2022-08-17T06:56:52.787Z,100251.22
2022-08-17T06:59:53.195Z,100292.66
2022-08-17T07:03:00.001Z,100310.16
2022-08-17T07:05:38.782Z,100331.88
2022-08-17T07:08:26.406Z,100380.91
2022-08-17T07:11:00.936Z,100425.59
2022-08-17T07:13:59.988Z,100432.63
2022-08-17T07:16:30.658Z,100437.38
2022-08-17T07:18:59.339Z,100477.75
2022-08-17T07:21:28.990Z,100496.03
2022-08-17T07:24:03.040Z,100524.25
2022-08-17T07:26:29.780Z,100564.28
2022-08-17T07:28:57.261Z,100604.75
2022-08-17T07:31:28.588Z,100607.59
2022-08-17T07:34:06.732Z,100639.16
2022-08-17T07:36:34.416Z,100693.81
2022-08-17T07:39:02.957Z,100695.88
2022-08-17T07:41:57.826Z,100712.63
2022-08-17T07:44:20.879Z,100764.19
2022-08-17T07:47:12.050Z,100804.91
2022-08-17T07:49:44.291Z,100823.22
2022-08-17T07:52:48.045Z,100809.69
2022-08-17T07:55:31.024Z,100825.81
2022-08-17T07:57:59.150Z,100839.13
2022-08-17T08:00:31.754Z,100849.56
2022-08-17T08:03:18.461Z,100872.94
2022-08-17T08:05:55.968Z,100912.06
2022-08-17T08:08:28.508Z,100962.94
2022-08-17T08:11:07.262Z,100997.25
2022-08-17T08:13:40.402Z,101034.56
2022-08-17T08:16:29.713Z,101070.03
2022-08-17T08:18:59.751Z,101103.88
2022-08-17T08:21:54.826Z,101112.50
2022-08-17T08:24:36.720Z,101119.47
2022-08-17T08:27:23.224Z,101128.38
2022-08-17T08:30:00.150Z,101134.91
2022-08-17T08:33:01.532Z,101141.31
2022-08-17T08:35:29.657Z,101147.03
2022-08-17T08:38:29.302Z,101162.38
2022-08-17T08:41:02.509Z,101173.13
2022-08-17T08:43:38.077Z,101177.97
2022-08-17T08:46:35.525Z,101183.72
2022-08-17T08:49:59.516Z,101188.13
2022-08-17T08:52:31.045Z,101197.09
2022-08-17T08:55:41.090Z,101197.34
2022-08-17T08:58:31.801Z,101202.13
2022-08-17T09:01:06.245Z,101213.94
2022-08-17T09:04:11.839Z,101219.06
2022-08-17T09:06:58.144Z,101216.28
2022-08-17T09:09:42.617Z,101229.91
2022-08-17T09:12:09.386Z,101230.75
2022-08-17T09:14:48.657Z,101242.59
2022-08-17T09:17:36.281Z,101247.72
2022-08-17T09:20:28.189Z,101249.31
2022-08-17T09:23:07.118Z,101250.28
2022-08-17T09:25:49.813Z,101252.91
2022-08-17T09:28:27.234Z,101252.16
2022-08-17T09:31:03.547Z,101250.59
2022-08-17T09:33:33.797Z,101250.31
2022-08-17T09:36:11.518Z,101248.19
2022-08-17T09:38:56.509Z,101245.44
2022-08-17T09:41:29.355Z,101252.16
2022-08-17T09:44:22.715Z,101253.03
2022-08-17T09:47:07.380Z,101256.56
2022-08-17T09:50:11.573Z,101255.88
2022-08-17T09:52:38.298Z,101257.34
2022-08-17T09:55:06.460Z,101251.25
2022-08-17T09:57:46.553Z,101251.72
2022-08-17T10:00:21.663Z,101254.44
2022-08-17T10:03:19.908Z,101241.84
2022-08-17T10:06:21.798Z,101238.13
2022-08-17T10:09:02.226Z,101237.13
2022-08-17T10:12:13.580Z,101236.00
2022-08-17T10:14:59.250Z,101238.78
2022-08-17T10:18:04.126Z,101219.84
2022-08-17T10:20:49.643Z,101222.16
2022-08-17T10:23:45.501Z,101215.47
2022-08-17T10:26:23.136Z,101213.88
2022-08-17T10:28:58.708Z,101214.44
2022-08-17T10:31:42.395Z,101192.75
2022-08-17T10:34:42.072Z,101186.06
2022-08-17T10:37:46.557Z,101178.75
2022-08-17T10:40:37.019Z,101197.91
2022-08-17T10:43:44.673Z,101191.81
2022-08-17T10:46:42.403Z,101196.88
2022-08-17T10:49:18.372Z,101217.63
2022-08-17T10:51:47.975Z,101208.28
2022-08-17T10:54:39.329Z,101193.00
2022-08-17T10:57:32.116Z,101184.97
2022-08-17T11:00:00.814Z,101153.25
2022-08-17T11:02:50.022Z,101131.94
2022-08-17T11:05:43.484Z,101150.66
2022-08-17T11:08:22.992Z,101157.97
2022-08-17T11:10:52.948Z,101204.59
2022-08-17T11:16:08.943Z,101158.78
2022-08-17T11:18:57.252Z,101161.81
2022-08-17T11:22:07.085Z,101170.16
2022-08-17T11:24:33.680Z,101151.97
2022-08-17T11:27:02.926Z,101178.78
2022-08-17T11:29:37.505Z,101200.50
2022-08-17T11:32:12.530Z,101185.22
2022-08-17T11:34:44.618Z,101157.59
2022-08-17T11:37:11.501Z,101159.47
2022-08-17T11:40:05.463Z,101163.13
2022-08-17T11:42:50.759Z,101162.00
2022-08-17T11:45:32.403Z,101154.72
2022-08-17T11:48:55.297Z,101145.75
2022-08-17T11:51:36.366Z,101166.75
2022-08-17T11:56:52.986Z,101177.72
2022-08-17T11:59:35.965Z,101169.09
2022-08-17T12:02:35.217Z,101148.47
2022-08-17T12:05:11.961Z,101150.38
2022-08-17T12:07:46.388Z,101178.78
2022-08-17T12:10:17.739Z,101203.50
2022-08-17T12:12:47.155Z,101183.31
2022-08-17T12:15:21.952Z,101193.50
2022-08-17T12:17:54.778Z,101194.34
2022-08-17T12:20:24.401Z,101211.19
2022-08-17T12:23:09.772Z,101215.84
2022-08-17T12:25:56.853Z,101226.59
2022-08-17T12:28:33.153Z,101211.66
2022-08-17T12:31:05.938Z,101189.63
2022-08-17T12:33:35.976Z,101213.03
2022-08-17T12:36:08.927Z,101204.91
2022-08-17T12:38:38.222Z,101231.66
2022-08-17T12:41:25.976Z,101244.38
2022-08-17T12:44:05.049Z,101243.75
2022-08-17T12:46:44.766Z,101240.09
2022-08-17T12:49:33.099Z,101239.16
2022-08-17T12:52:25.727Z,101243.50
2022-08-17T12:55:02.021Z,101254.34
2022-08-17T12:57:43.660Z,101261.63
2022-08-17T13:00:17.645Z,101274.22
2022-08-17T13:02:48.626Z,101275.41
2022-08-17T13:05:27.684Z,101260.03
2022-08-17T13:07:56.305Z,101267.16
2022-08-17T13:10:33.440Z,101248.94
2022-08-17T13:13:17.619Z,101257.59
2022-08-17T13:15:54.438Z,101268.31
2022-08-17T13:18:36.339Z,101255.94
2022-08-17T13:21:03.180Z,101249.38
2022-08-17T13:23:31.405Z,101246.88
2022-08-17T13:26:09.196Z,101257.13
2022-08-17T13:28:37.544Z,101251.53
2022-08-17T13:31:39.420Z,101245.84
2022-08-17T13:35:02.763Z,101249.00
2022-08-17T13:37:35.204Z,101249.41
2022-08-17T13:40:21.776Z,101229.16
2022-08-17T13:42:54.011Z,101226.59
2022-08-17T13:45:35.390Z,101228.44
2022-08-17T13:48:20.867Z,101225.09
2022-08-17T13:50:56.632Z,101223.81
2022-08-17T13:53:29.573Z,101210.41
2022-08-17T13:56:33.363Z,101213.84
2022-08-17T13:59:06.113Z,101212.34
2022-08-17T14:01:39.524Z,101206.69
2022-08-17T14:04:12.844Z,101213.72
2022-08-17T14:06:53.355Z,101211.47
2022-08-17T14:09:25.555Z,101245.38
2022-08-17T14:11:54.109Z,101262.91
2022-08-17T14:14:23.131Z,101261.06
2022-08-17T14:16:51.841Z,101260.78
2022-08-17T14:19:22.043Z,101262.06
2022-08-17T14:21:49.587Z,101266.63
2022-08-17T14:24:43.952Z,101248.19
2022-08-17T14:27:12.118Z,101228.47
2022-08-17T14:29:41.111Z,101216.91
2022-08-17T14:32:17.107Z,101210.44
2022-08-17T14:34:45.172Z,101212.69
2022-08-17T14:37:12.501Z,101233.81
2022-08-17T14:39:39.523Z,101232.09
2022-08-17T14:42:06.466Z,101234.47
2022-08-17T14:44:33.346Z,101246.16
2022-08-17T14:47:00.012Z,101251.00
2022-08-17T14:49:27.050Z,101253.25
2022-08-17T14:51:53.990Z,101256.34
2022-08-17T14:54:33.542Z,101248.66
2022-08-17T14:57:22.495Z,101258.28
2022-08-17T14:59:54.231Z,101261.41
2022-08-17T15:02:29.481Z,101261.59
2022-08-17T15:05:05.815Z,101253.63
2022-08-17T15:07:32.521Z,101248.69
2022-08-17T15:10:01.523Z,101248.91
2022-08-17T15:12:33.342Z,101244.34
2022-08-17T15:15:05.434Z,101245.25
2022-08-17T15:17:44.736Z,101234.88
2022-08-17T15:20:25.585Z,101224.56
2022-08-17T15:22:56.093Z,101234.81
2022-08-17T15:25:24.997Z,101219.88
2022-08-17T15:27:52.254Z,101226.66
2022-08-17T15:30:20.008Z,101229.25
2022-08-17T15:32:54.002Z,101221.16
2022-08-17T15:35:27.384Z,101223.03
2022-08-17T15:38:04.941Z,101218.06
2022-08-17T15:40:37.263Z,101215.47
2022-08-17T15:43:11.282Z,101207.94
2022-08-17T15:45:39.038Z,101205.09
2022-08-17T15:48:05.877Z,101199.59
2022-08-17T15:50:32.674Z,101200.53
2022-08-17T15:53:01.180Z,101192.28
2022-08-17T15:55:30.541Z,101185.41
2022-08-17T15:57:57.250Z,101186.69
2022-08-17T16:00:24.143Z,101191.22
2022-08-17T16:03:45.965Z,101184.81
2022-08-17T16:05:40.800Z,101173.56
2022-08-17T16:08:08.143Z,101185.09
2022-08-17T16:10:36.100Z,101170.13
2022-08-17T16:13:04.404Z,101170.44
2022-08-17T16:15:31.737Z,101171.44
2022-08-17T16:17:58.952Z,101163.06
2022-08-17T16:20:26.170Z,101167.56
2022-08-17T16:22:54.197Z,101169.13
2022-08-17T16:25:47.230Z,101173.47
2022-08-17T16:28:12.960Z,101163.50
2022-08-17T16:30:41.290Z,101143.69
2022-08-17T16:33:11.386Z,101147.38
2022-08-17T16:35:38.882Z,101142.69
2022-08-17T16:38:07.075Z,101144.81
2022-08-17T16:40:36.112Z,101137.63
2022-08-17T16:43:04.378Z,101128.75
2022-08-17T16:45:36.570Z,101140.06
2022-08-17T16:48:03.981Z,101140.16
2022-08-17T16:50:32.041Z,101155.84
2022-08-17T16:53:16.220Z,101145.53
2022-08-17T16:55:47.382Z,101155.31
2022-08-17T16:58:15.242Z,101151.25
2022-08-17T17:00:44.419Z,101159.06
2022-08-17T17:03:18.949Z,101157.59
2022-08-17T17:06:03.565Z,101168.13
2022-08-17T17:08:38.321Z,101172.63
2022-08-17T17:11:14.919Z,101172.41
2022-08-17T17:13:54.442Z,101174.25
2022-08-17T17:16:29.276Z,101176.06
2022-08-17T17:19:14.480Z,101174.69
2022-08-17T17:22:04.805Z,101178.06
2022-08-17T17:24:36.921Z,101174.41
2022-08-17T17:27:15.833Z,101175.50
2022-08-17T17:30:13.929Z,101167.06
2022-08-17T17:32:54.633Z,101175.50
2022-08-17T17:35:53.951Z,101177.34
2022-08-17T17:38:29.188Z,101183.94
2022-08-17T17:41:03.039Z,101174.94
2022-08-17T17:43:39.626Z,101169.19
2022-08-17T17:46:26.746Z,101179.34
2022-08-17T17:49:09.504Z,101184.69
2022-08-17T17:52:09.606Z,101193.44
2022-08-17T17:55:05.281Z,101187.91
2022-08-17T17:57:45.048Z,101187.78
2022-08-17T18:00:22.041Z,101190.25
2022-08-17T18:03:25.905Z,101192.81
2022-08-17T18:06:05.096Z,101202.44
2022-08-17T18:11:25.119Z,101204.19
2022-08-17T18:14:19.930Z,101203.69
2022-08-17T18:16:51.526Z,101214.88
2022-08-17T18:19:25.000Z,101214.41
2022-08-17T18:22:01.360Z,101218.28
2022-08-17T18:24:34.459Z,101211.13
2022-08-17T18:27:02.999Z,101205.69
2022-08-17T18:29:44.596Z,101197.13
2022-08-17T18:32:15.950Z,101188.69
2022-08-17T18:34:47.750Z,101176.69
2022-08-17T18:37:32.082Z,101167.44
2022-08-17T18:39:58.989Z,101164.72
2022-08-17T18:42:29.664Z,101158.03
2022-08-17T18:44:56.435Z,101145.00
2022-08-17T18:47:28.684Z,101136.75
2022-08-17T18:50:21.237Z,101131.91
2022-08-17T18:52:48.696Z,101122.09
2022-08-17T18:55:21.457Z,101110.22
2022-08-17T18:57:55.650Z,101104.38
2022-08-17T19:00:39.400Z,101112.13
2022-08-17T19:03:15.262Z,101124.69
2022-08-17T19:05:43.349Z,101114.44
2022-08-17T19:08:23.863Z,101111.94
2022-08-17T19:10:59.534Z,101112.25
2022-08-17T19:13:35.340Z,101108.47
2022-08-17T19:16:14.162Z,101111.25
2022-08-17T19:18:49.378Z,101118.69
2022-08-17T19:21:22.871Z,101115.81
2022-08-17T19:24:00.602Z,101108.72
2022-08-17T19:26:54.646Z,101115.44
2022-08-17T19:29:44.202Z,101107.50
2022-08-17T19:32:15.833Z,101111.06
2022-08-17T19:34:44.830Z,101110.75
2022-08-17T19:37:17.537Z,101107.56
2022-08-17T19:40:00.186Z,101111.00
2022-08-17T19:42:37.281Z,101118.56
2022-08-17T19:45:16.198Z,101118.06
2022-08-17T19:47:59.485Z,101118.94
2022-08-17T19:50:41.139Z,101133.19
2022-08-17T19:53:47.806Z,101123.69
2022-08-17T19:56:35.302Z,101130.66
2022-08-17T19:59:10.946Z,101143.88
2022-08-17T20:01:43.579Z,101141.84
2022-08-17T20:04:32.876Z,101150.09
2022-08-17T20:07:06.224Z,101159.56
2022-08-17T20:09:44.925Z,101160.63
2022-08-17T20:12:19.197Z,101163.59
2022-08-17T20:15:18.421Z,101190.09
2022-08-17T20:17:48.253Z,101211.94
2022-08-17T20:20:21.421Z,101266.16
2022-08-17T20:22:58.625Z,101311.41
2022-08-17T20:25:54.707Z,101307.28
2022-08-17T20:28:29.544Z,101309.59
2022-08-17T20:30:59.889Z,101299.75
2022-08-17T20:33:30.537Z,101242.28
2022-08-17T20:36:24.289Z,101188.34
2022-08-17T20:38:57.192Z,101175.28
2022-08-17T20:41:28.394Z,101153.69
2022-08-17T20:43:58.770Z,101125.56
2022-08-17T20:46:37.967Z,101101.09
2022-08-17T20:49:10.822Z,101111.34
2022-08-17T20:52:01.441Z,101069.84
2022-08-17T20:54:41.482Z,101033.66
2022-08-17T20:57:14.086Z,101023.69
2022-08-17T20:59:44.235Z,101002.47
2022-08-17T21:02:19.445Z,100986.34
2022-08-17T21:04:54.370Z,100967.06
2022-08-17T21:07:24.058Z,100963.06
2022-08-17T21:09:51.249Z,100955.22
2022-08-17T21:12:42.530Z,100934.50
2022-08-17T21:15:32.505Z,100924.31
2022-08-17T21:18:23.349Z,100903.50
2022-08-17T21:21:15.367Z,100881.53
2022-08-17T21:24:06.964Z,100882.31
2022-08-17T21:26:50.669Z,100836.03
2022-08-17T21:29:31.467Z,100803.50
2022-08-17T21:31:59.600Z,100776.69
2022-08-17T21:34:35.059Z,100776.31
2022-08-17T21:37:19.938Z,100703.50
2022-08-17T21:40:11.378Z,100682.28
2022-08-17T21:42:46.696Z,100677.31
2022-08-17T21:45:22.531Z,100681.59
2022-08-17T21:47:52.006Z,100653.34
2022-08-17T21:50:22.829Z,100641.66
2022-08-17T21:52:53.928Z,100620.16
2022-08-17T21:55:31.009Z,100616.84
2022-08-17T21:58:13.699Z,100610.31
2022-08-17T22:00:44.481Z,100599.97
2022-08-17T22:03:24.204Z,100584.31
2022-08-17T22:05:51.478Z,100572.94
2022-08-17T22:08:23.731Z,100575.38
2022-08-17T22:10:51.782Z,100572.56
2022-08-17T22:13:18.429Z,100581.19
2022-08-17T22:16:28.969Z,100583.78
2022-08-17T22:18:58.782Z,100583.13
2022-08-17T22:21:26.853Z,100580.53
2022-08-17T22:24:20.353Z,100569.84
2022-08-17T22:27:10.378Z,100555.53
2022-08-17T22:30:00.452Z,100544.84
2022-08-17T22:32:36.056Z,100543.66
2022-08-17T22:35:34.394Z,100530.22
2022-08-17T22:38:19.485Z,100527.81
2022-08-17T22:40:49.806Z,100524.00
2022-08-17T22:43:21.287Z,100521.44
2022-08-17T22:45:55.661Z,100521.63
2022-08-17T22:48:27.129Z,100526.13
2022-08-17T22:51:12.780Z,100527.81
2022-08-17T22:54:17.944Z,100539.19
2022-08-17T22:57:20.189Z,100536.41
2022-08-17T22:59:50.604Z,100536.94
2022-08-17T23:02:19.645Z,100542.44
2022-08-17T23:04:53.509Z,100484.25
2022-08-17T23:07:21.684Z,100451.00
2022-08-17T23:09:48.557Z,100452.38
2022-08-17T23:12:21.708Z,100451.84
2022-08-17T23:14:51.390Z,100426.53
2022-08-17T23:17:18.238Z,100423.78
2022-08-17T23:19:45.431Z,100414.66
2022-08-17T23:22:15.437Z,100414.13
2022-08-17T23:24:46.912Z,100401.56
2022-08-17T23:27:13.684Z,100393.78
2022-08-17T23:29:42.024Z,100380.53
2022-08-17T23:32:14.982Z,100391.19
2022-08-17T23:34:43.405Z,100385.78
2022-08-17T23:37:11.652Z,100386.16
2022-08-17T23:39:39.441Z,100369.81
2022-08-17T23:42:08.644Z,100368.97
2022-08-17T23:44:37.559Z,100326.03
2022-08-17T23:47:04.908Z,100325.22
2022-08-17T23:49:32.360Z,100319.41
2022-08-17T23:52:01.813Z,100295.56
2022-08-17T23:54:38.604Z,100309.41
2022-08-17T23:57:05.331Z,100308.16
2022-08-17T23:59:33.898Z,100318.16
